De Peel Air Base

METAR EHVK TAF EHVK
12 °C
°C
/
°C
13m
Âge
01:38:16
LT
23:38
UTC
0 ft

6.000

12.000

18.000

24.000

30.000

BKN 23.000
BKN 29.000
VFR
<?= Yii::t('app', 'Wind direction') ?> <?= Yii::t('app', 'of'); ?>
030°
05:26
Lever du soleil
82%
Humidité
Cisaillement du vent
Fermé/neige
Portée visuelle RWY
Condition RWY
Visibilité vert.
Visibilité min.
CAVOK
Tendance
Correction
Rapport spécial
1026 hPa
QNH
METAR EHVK 302325Z AUTO 03006KT 350V050 9999 BKN230 BKN290 12/09 Q1026 BLU
Fragmenté
3 kt
3 kt
01:00
VFR
7 kt
02:00
VFR
7 kt
03:00
VFR
7 kt
04:00
VFR
7 kt
05:00
VFR
7 kt
06:00
VFR
7 kt
07:00
VFR
7 kt
10 km+
Vue
23.000 ft
Base cloud
6 kt
Vent
metar-taf.com/EHDP

Metar-Taf.com

Décodeur visuel

Nous et des tiers suivons ton comportement Internet sur notre site Web à l'aide de cookies. Si tu continues, nous supposons que tu es d'accord avec notre Politique en matière de cookies.